Time;durP1;ratioP1;P1;durP2;ratioP2;P2;SDS_P1;SDS_P2;PMS_P1;PMS_P2;Temp;Humidity;BMP_temperature;BMP_pressure;BME280_temperature;BME280_humidity;BME280_pressure;Samples;Min_cycle;Max_cycle;Signal;HPM_P1;HPM_P2
2023/03/24 00:01:01;;;;;;;7.50;3.70;;;15.80;53.60;;;11.53;81.58;94869.66;5014764;28;20337;-48
2023/03/24 00:03:29;;;;;;;5.30;3.30;;;15.80;53.90;;;11.48;82.01;94872.38;5032514;28;20387;-50
2023/03/24 00:06:00;;;;;;;5.90;3.72;;;15.70;53.90;;;11.34;82.60;94879.50;5005133;28;20018;-47
2023/03/24 00:08:36;;;;;;;6.50;3.80;;;15.70;54.00;;;11.35;83.55;94870.44;5018292;28;20033;-47
2023/03/24 00:11:10;;;;;;;6.13;4.50;;;15.70;54.30;;;11.37;83.71;94883.47;5005073;28;20036;-47
2023/03/24 00:13:38;;;;;;;6.18;4.13;;;15.60;54.40;;;11.31;84.89;94878.22;5010556;28;20499;-49
2023/03/24 00:16:11;;;;;;;3.53;3.22;;;15.60;55.10;;;11.19;83.91;94872.50;5031827;28;20051;-47
2023/03/24 00:18:39;;;;;;;4.50;3.60;;;15.50;54.70;;;11.23;82.37;94870.03;5010814;28;20044;-48
2023/03/24 00:21:07;;;;;;;4.88;3.72;;;15.50;54.60;;;11.24;84.26;94858.28;5012003;28;20086;-47
2023/03/24 00:23:34;;;;;;;8.75;4.30;;;15.50;54.80;;;11.25;84.78;94860.69;5027487;28;20072;-50
2023/03/24 00:26:05;;;;;;;5.15;3.85;;;15.50;54.90;;;11.24;85.28;94851.09;5006972;28;20021;-48
2023/03/24 00:28:35;;;;;;;6.05;3.95;;;15.40;55.00;;;11.22;84.07;94839.13;5029642;28;20083;-47
2023/03/24 00:31:05;;;;;;;7.07;3.75;;;15.40;55.20;;;11.20;84.84;94847.41;5027090;28;20020;-49
2023/03/24 00:33:34;;;;;;;5.22;3.65;;;15.50;55.20;;;11.17;85.82;94849.84;5031738;28;20119;-47
2023/03/24 00:36:04;;;;;;;4.78;3.60;;;15.40;55.30;;;11.17;85.61;94828.53;5022599;28;20030;-47
2023/03/24 00:38:33;;;;;;;6.30;4.15;;;15.40;55.40;;;11.17;85.60;94826.66;5030746;28;20037;-50
2023/03/24 00:41:00;;;;;;;6.45;4.38;;;15.40;55.40;;;11.16;85.65;94829.63;5031755;28;20044;-47
2023/03/24 00:43:29;;;;;;;7.53;3.97;;;15.40;55.60;;;11.13;85.42;94825.66;5002554;28;20043;-47
2023/03/24 00:46:10;;;;;;;4.72;3.58;;;15.40;55.60;;;11.10;84.72;94823.56;5031676;28;20025;-47
2023/03/24 00:48:37;;;;;;;3.95;3.55;;;15.40;55.70;;;11.09;84.75;94828.09;5014656;28;20072;-49
2023/03/24 00:51:09;;;;;;;5.45;3.78;;;15.30;55.60;;;11.12;85.05;94816.06;5028032;28;20032;-49
2023/03/24 00:53:36;;;;;;;7.18;3.95;;;15.30;55.70;;;11.09;85.18;94809.44;5032799;28;20025;-51
2023/03/24 00:56:03;;;;;;;5.72;3.80;;;15.30;56.30;;;11.05;85.64;94811.06;5012331;28;20040;-49
2023/03/24 00:58:33;;;;;;;7.85;3.55;;;15.30;55.80;;;11.05;85.19;94804.94;5035462;28;20024;-52
2023/03/24 01:00:59;;;;;;;4.70;3.72;;;15.30;55.80;;;10.98;85.38;94785.88;5017956;28;20036;-47
2023/03/24 01:03:26;;;;;;;5.50;3.78;;;15.30;55.80;;;10.96;86.64;94796.78;5033339;28;20020;-49
2023/03/24 01:06:00;;;;;;;5.55;3.80;;;15.20;55.90;;;10.96;85.22;94796.00;5017434;28;20511;-49
2023/03/24 01:08:27;;;;;;;5.53;4.03;;;15.20;55.90;;;10.97;86.18;94793.06;5002728;28;20025;-51
2023/03/24 01:10:54;;;;;;;6.90;4.20;;;15.20;56.00;;;10.97;85.61;94792.25;5008299;28;20037;-54
2023/03/24 01:13:29;;;;;;;5.05;3.80;;;15.20;56.00;;;10.94;84.82;94793.63;5014496;28;20025;-49
2023/03/24 01:15:56;;;;;;;6.35;3.63;;;15.20;56.10;;;10.99;84.47;94790.09;5027491;28;20025;-47
2023/03/24 01:18:23;;;;;;;7.15;3.60;;;15.20;56.00;;;10.97;84.24;94795.75;5016580;28;20066;-48
2023/03/24 01:20:49;;;;;;;7.53;3.63;;;15.30;56.10;;;11.00;83.94;94787.16;5027310;28;20027;-49
2023/03/24 01:23:24;;;;;;;5.78;3.80;;;15.20;56.00;;;11.00;84.25;94794.34;5035058;28;20025;-47
2023/03/24 01:25:51;;;;;;;4.47;3.55;;;15.20;56.10;;;11.02;83.68;94786.88;4995995;28;20120;-49
2023/03/24 01:28:23;;;;;;;4.68;3.92;;;15.20;56.00;;;11.01;83.83;94786.09;5028012;28;20395;-49
2023/03/24 01:30:54;;;;;;;3.87;3.10;;;15.30;56.10;;;11.02;83.78;94787.66;5014291;28;20029;-48
2023/03/24 01:33:21;;;;;;;9.23;3.80;;;15.30;56.00;;;11.03;83.20;94786.59;5015225;28;20075;-47
2023/03/24 01:35:48;;;;;;;4.72;3.75;;;15.30;55.90;;;11.02;83.72;94779.66;5013894;28;20028;-48
2023/03/24 01:38:15;;;;;;;7.07;4.13;;;15.30;56.00;;;10.99;84.25;94788.22;5015547;28;20379;-50
2023/03/24 01:40:46;;;;;;;5.55;3.80;;;15.30;56.00;;;10.99;83.65;94801.56;5015113;28;20025;-49
2023/03/24 01:43:29;;;;;;;5.78;4.00;;;15.30;56.00;;;10.98;83.41;94812.50;5008630;28;20040;-47
2023/03/24 01:46:06;;;;;;;5.80;4.03;;;15.30;56.00;;;10.99;83.26;94816.75;5009274;28;20119;-48
2023/03/24 01:48:43;;;;;;;5.53;4.00;;;15.30;56.00;;;11.05;82.04;94820.94;5013760;28;20021;-50
2023/03/24 01:51:39;;;;;;;5.35;3.70;;;15.30;56.00;;;11.12;82.26;94832.03;4982325;28;20029;-47
2023/03/24 01:54:19;;;;;;;6.97;3.83;;;15.40;56.10;;;11.10;82.42;94843.00;4995410;28;20108;-48
2023/03/24 01:57:01;;;;;;;5.07;4.05;;;15.40;56.10;;;11.16;81.96;94832.28;5011844;28;20037;-48
2023/03/24 01:59:35;;;;;;;4.50;3.80;;;15.40;56.00;;;11.14;81.47;94827.22;4993280;28;20400;-53
2023/03/24 02:02:05;;;;;;;5.18;4.07;;;15.40;56.00;;;11.22;81.07;94815.13;5012329;28;20052;-48
2023/03/24 02:04:41;;;;;;;4.82;3.75;;;15.40;55.90;;;11.23;81.99;94809.53;4994098;28;20049;-49
2023/03/24 02:07:33;;;;;;;4.90;4.00;;;15.40;55.90;;;11.21;83.22;94809.00;4995687;28;20056;-49
2023/03/24 02:10:12;;;;;;;5.35;4.00;;;15.40;56.00;;;11.18;83.49;94798.91;5014848;28;20029;-47
2023/03/24 02:12:41;;;;;;;5.05;3.47;;;15.40;56.00;;;11.06;83.91;94812.69;4979816;28;20366;-47
2023/03/24 02:15:09;;;;;;;6.60;3.72;;;15.40;55.90;;;11.08;83.42;94809.72;5013899;28;20036;-50
2023/03/24 02:18:01;;;;;;;5.20;4.07;;;15.40;55.90;;;11.07;82.83;94814.25;5005942;28;20497;-47
2023/03/24 02:21:15;;;;;;;7.35;4.30;;;15.40;56.00;;;11.08;83.72;94810.50;5005974;28;20041;-48
2023/03/24 02:24:08;;;;;;;5.15;4.18;;;15.40;56.00;;;10.97;85.54;94819.72;5001690;28;20052;-50
2023/03/24 02:26:51;;;;;;;;;;;15.40;56.10;;;10.96;86.45;94823.44;5010478;28;20049;-49
2023/03/24 02:30:17;;;;;;;7.43;4.15;;;15.30;55.70;;;10.99;86.74;94814.88;4996358;28;19920;-48
2023/03/24 02:33:29;;;;;;;6.10;4.38;;;15.30;56.30;;;10.92;90.33;94808.31;5011873;28;20025;-47
2023/03/24 02:36:22;;;;;;;8.77;4.45;;;15.20;56.60;;;10.83;90.81;94813.47;5012566;28;20087;-50
2023/03/24 02:39:54;;;;;;;8.77;4.50;;;15.20;56.80;;;10.78;91.36;94803.69;4994471;28;20284;-48
2023/03/24 02:42:55;;;;;;;6.18;4.50;;;15.10;57.00;;;10.73;93.89;94789.63;5012875;28;20120;-47
2023/03/24 02:46:06;;;;;;;5.25;3.63;;;15.00;57.30;;;10.58;95.06;94779.94;5000858;28;20122;-46
2023/03/24 02:49:06;;;;;;;6.65;4.50;;;15.00;57.50;;;10.56;96.51;94766.91;5012531;28;20032;-49
2023/03/24 02:52:10;;;;;;;6.40;4.20;;;14.90;57.80;;;10.52;97.73;94751.78;5013768;28;20026;-48
2023/03/24 02:55:00;;;;;;;6.15;4.40;;;14.80;58.00;;;10.46;98.49;94748.38;4997882;28;20045;-47
2023/03/24 02:57:53;;;;;;;7.28;4.65;;;14.80;58.20;;;10.37;98.66;94744.75;5001573;28;20040;-46
2023/03/24 03:00:29;;;;;;;5.45;4.03;;;14.70;58.40;;;10.24;99.11;94732.88;4991822;28;20018;-46
2023/03/24 03:03:41;;;;;;;7.00;4.00;;;14.60;58.50;;;10.30;97.52;94737.09;5001981;28;20504;-46
2023/03/24 03:06:25;;;;;;;4.90;3.72;;;14.60;58.70;;;10.38;95.80;94727.72;5001298;28;20473;-48
2023/03/24 03:08:56;;;;;;;4.60;3.25;;;14.60;58.80;;;10.44;94.67;94704.50;4992844;28;20030;-49
2023/03/24 03:11:22;;;;;;;4.40;3.50;;;14.60;58.90;;;10.49;93.51;94707.09;5004638;28;20020;-46
2023/03/24 03:14:00;;;;;;;3.92;3.30;;;14.60;58.80;;;10.52;93.44;94707.28;5012336;28;20037;-46
2023/03/24 03:16:58;;;;;;;4.13;3.42;;;14.70;59.10;;;10.57;94.11;94701.13;4992985;28;20025;-47
2023/03/24 03:20:09;;;;;;;5.75;3.33;;;14.70;59.10;;;10.54;94.80;94704.38;4991798;28;20065;-50
2023/03/24 03:23:01;;;;;;;6.18;4.03;;;14.70;59.00;;;10.56;93.65;94719.00;4988363;28;20032;-51
2023/03/24 03:25:41;;;;;;;5.45;4.15;;;14.70;59.00;;;10.57;90.60;94706.47;4987678;28;20033;-45
2023/03/24 03:28:13;;;;;;;5.95;3.83;;;14.70;58.90;;;10.63;91.50;94705.31;5009319;28;20035;-48
2023/03/24 03:30:46;;;;;;;6.38;3.75;;;14.80;58.90;;;10.70;91.95;94715.63;4987095;28;20022;-46
2023/03/24 03:33:24;;;;;;;7.22;4.75;;;14.80;58.90;;;10.69;92.17;94706.84;5028478;28;20021;-48
2023/03/24 03:36:14;;;;;;;5.85;3.72;;;14.80;58.90;;;10.70;91.80;94711.09;5010146;28;20148;-46
2023/03/24 03:39:05;;;;;;;5.35;4.18;;;14.90;59.00;;;10.66;92.44;94715.41;5011254;28;20040;-47
2023/03/24 03:41:31;;;;;;;5.90;4.18;;;14.80;58.90;;;10.64;93.23;94710.34;5031120;28;20110;-52
2023/03/24 03:43:59;;;;;;;7.35;4.28;;;14.80;58.80;;;10.59;93.46;94696.28;5018057;28;20090;-47
2023/03/24 03:46:25;;;;;;;6.93;4.72;;;14.90;58.90;;;10.59;93.63;94698.97;5032796;28;20483;-47
2023/03/24 03:48:52;;;;;;;6.82;3.90;;;14.80;58.90;;;10.56;94.37;94688.88;5008742;28;20443;-49
2023/03/24 03:51:19;;;;;;;5.40;4.20;;;14.80;59.00;;;10.53;95.36;94684.94;4988719;28;20032;-51
2023/03/24 03:53:59;;;;;;;7.60;4.35;;;14.80;59.00;;;10.49;95.17;94691.91;5026658;28;20035;-48
2023/03/24 03:56:31;;;;;;;6.72;4.70;;;14.80;59.20;;;10.42;95.08;94692.25;4998369;28;20387;-46
2023/03/24 03:58:57;;;;;;;5.25;4.20;;;14.70;59.10;;;10.34;95.98;94684.09;5015136;28;20030;-48
2023/03/24 04:01:32;;;;;;;6.00;4.63;;;14.70;59.10;;;10.31;96.17;94680.16;5002456;28;20053;-47
2023/03/24 04:04:10;;;;;;;7.10;5.15;;;14.70;59.40;;;10.31;96.35;94687.31;4974037;28;20024;-48
2023/03/24 04:06:52;;;;;;;5.68;4.35;;;14.70;59.50;;;10.30;96.40;94683.88;4992256;28;20484;-50
2023/03/24 04:09:55;;;;;;;5.75;4.28;;;14.70;59.60;;;10.25;97.85;94704.38;5005484;28;20033;-50
2023/03/24 04:13:18;;;;;;;7.97;5.07;;;14.60;59.70;;;10.22;98.00;94713.75;4986214;28;20032;-47
2023/03/24 04:16:16;;;;;;;11.23;4.57;;;14.60;59.80;;;10.17;98.33;94727.09;4998868;28;20034;-50
2023/03/24 04:19:24;;;;;;;6.07;4.60;;;14.50;59.80;;;10.14;98.12;94733.78;5017318;28;20040;-50
2023/03/24 04:22:17;;;;;;;7.35;5.10;;;14.50;59.80;;;10.13;98.27;94745.50;4992202;28;20038;-52
2023/03/24 04:25:29;;;;;;;7.15;5.10;;;14.50;60.00;;;10.10;97.74;94748.72;4991719;28;20025;-47
2023/03/24 04:28:26;;;;;;;6.97;4.15;;;14.50;60.10;;;10.17;96.74;94770.47;4988323;28;20034;-47
2023/03/24 04:31:13;;;;;;;6.88;4.47;;;14.50;60.00;;;10.18;96.62;94763.28;4998869;28;20400;-52
2023/03/24 04:34:02;;;;;;;7.63;5.20;;;14.50;60.00;;;10.19;97.27;94760.34;4992950;28;20075;-50
2023/03/24 04:36:49;;;;;;;6.63;5.03;;;14.50;60.10;;;10.08;98.14;94755.41;4978761;28;20068;-52
2023/03/24 04:39:26;;;;;;;6.93;4.47;;;14.50;60.10;;;10.10;98.08;94767.34;4975493;28;20053;-51
2023/03/24 04:42:00;;;;;;;8.75;4.97;;;14.50;60.10;;;10.14;97.92;94778.22;4974780;28;20108;-53
2023/03/24 04:44:31;;;;;;;6.47;4.72;;;14.40;60.10;;;10.15;97.55;94782.47;5001887;28;20037;-53
2023/03/24 04:47:04;;;;;;;5.75;4.43;;;14.40;60.10;;;10.15;97.45;94791.28;4998404;28;20033;-47
2023/03/24 04:49:30;;;;;;;7.05;4.75;;;14.40;60.30;;;10.16;97.25;94789.41;4977566;28;20052;-50
2023/03/24 04:51:56;;;;;;;5.95;4.78;;;14.50;60.30;;;10.16;97.02;94792.84;4974536;28;20038;-50
2023/03/24 04:54:23;;;;;;;6.28;4.30;;;14.50;60.30;;;10.18;97.03;94798.69;4998410;28;20114;-53
2023/03/24 04:56:53;;;;;;;7.78;4.80;;;14.50;60.40;;;10.22;96.71;94792.81;5007153;28;20394;-52
2023/03/24 04:59:20;;;;;;;5.38;4.28;;;14.50;60.60;;;10.20;97.28;94785.88;5003586;28;20028;-48
2023/03/24 05:01:49;;;;;;;7.72;5.07;;;14.50;60.50;;;10.17;97.38;94786.44;4994193;28;20116;-50
2023/03/24 05:04:23;;;;;;;5.45;4.32;;;14.60;60.50;;;10.21;96.70;94792.00;5011523;28;20025;-51
2023/03/24 05:06:50;;;;;;;6.63;4.38;;;14.60;61.30;;;10.24;96.21;94785.31;4998037;28;20589;-51
2023/03/24 05:09:22;;;;;;;6.80;4.22;;;14.60;60.50;;;10.29;96.04;94777.31;5006634;28;20575;-52
2023/03/24 05:11:49;;;;;;;;;;;14.60;60.60;;;10.33;95.39;94783.66;4997918;28;20042;-50
2023/03/24 05:14:17;;;;;;;9.77;4.70;;;14.60;60.10;;;10.32;95.66;94790.84;4999128;28;19960;-49
2023/03/24 05:16:43;;;;;;;11.25;5.30;;;14.60;60.20;;;10.34;96.10;94778.06;5004432;28;20072;-50
2023/03/24 05:19:10;;;;;;;7.03;4.07;;;14.70;60.30;;;10.32;97.00;94777.56;5044387;23;20125;-51
2023/03/24 05:21:36;;;;;;;6.57;5.18;;;14.70;60.30;;;10.31;97.75;94801.78;5017672;28;20044;-50
2023/03/24 05:24:03;;;;;;;5.95;4.40;;;14.70;60.30;;;10.27;97.02;94793.56;5022879;28;20032;-50
2023/03/24 05:26:30;;;;;;;5.38;4.38;;;14.60;60.40;;;10.25;97.42;94793.03;5022317;28;20033;-52
2023/03/24 05:28:56;;;;;;;5.50;4.38;;;14.60;60.50;;;10.26;97.63;94804.47;5031885;28;20044;-50
2023/03/24 05:31:22;;;;;;;5.07;3.72;;;14.60;60.60;;;10.25;94.54;94798.38;5029415;28;20029;-49
2023/03/24 05:33:47;;;;;;;4.65;3.70;;;14.60;60.70;;;10.35;96.50;94806.28;5032122;28;20441;-50
2023/03/24 05:36:14;;;;;;;6.50;3.63;;;14.60;60.70;;;10.41;95.58;94793.72;5037200;28;20371;-50
2023/03/24 05:38:40;;;;;;;5.30;4.05;;;14.60;61.60;;;10.46;96.05;94784.84;5051604;28;20036;-50
2023/03/24 05:41:07;;;;;;;5.47;3.65;;;14.60;60.90;;;10.52;94.75;94787.19;5048339;28;20386;-49
2023/03/24 05:43:33;;;;;;;6.45;4.38;;;14.60;61.10;;;10.58;94.34;94787.94;5012867;28;20029;-51
2023/03/24 05:45:59;;;;;;;5.95;3.83;;;14.60;61.10;;;10.65;94.17;94789.19;5033639;28;20060;-51
2023/03/24 05:48:26;;;;;;;5.82;4.22;;;14.60;61.10;;;10.65;95.53;94786.53;5033065;28;20455;-50
2023/03/24 05:50:53;;;;;;;4.93;3.95;;;14.60;61.20;;;10.51;98.72;94801.59;5034157;28;20066;-49
2023/03/24 05:53:19;;;;;;;6.55;4.00;;;14.70;61.40;;;10.52;98.52;94802.38;5034276;28;20032;-49
2023/03/24 05:55:45;;;;;;;5.13;3.85;;;14.60;61.30;;;10.52;98.77;94805.03;5032409;28;20471;-52
2023/03/24 05:58:11;;;;;;;6.50;4.18;;;14.60;61.30;;;10.44;98.61;94803.00;5033921;28;20036;-49
2023/03/24 06:00:37;;;;;;;8.55;4.25;;;14.60;61.40;;;10.40;99.27;94808.91;5030030;28;20036;-49
2023/03/24 06:03:04;;;;;;;8.88;4.63;;;14.60;61.50;;;10.27;100.00;94812.19;5033791;28;20032;-50
2023/03/24 06:05:31;;;;;;;7.60;4.63;;;14.60;61.50;;;10.19;100.00;94820.78;5027514;28;20020;-53
2023/03/24 06:08:00;;;;;;;9.02;4.45;;;14.60;61.60;;;10.28;100.00;94821.78;5015949;28;20107;-50
2023/03/24 06:10:28;;;;;;;5.05;4.28;;;14.60;61.70;;;10.31;100.00;94833.72;5032729;28;20036;-50
2023/03/24 06:12:55;;;;;;;7.22;4.43;;;14.60;61.80;;;10.30;100.00;94840.13;5014665;28;20021;-51
2023/03/24 06:15:26;;;;;;;6.13;4.65;;;14.50;61.90;;;10.28;100.00;94834.28;5034159;28;20104;-50
2023/03/24 06:17:53;;;;;;;9.20;5.35;;;14.60;62.00;;;10.27;100.00;94838.81;5029543;28;20067;-52
2023/03/24 06:20:20;;;;;;;9.57;5.65;;;14.50;62.00;;;10.15;100.00;94835.69;5025111;28;20027;-50
2023/03/24 06:22:48;;;;;;;7.00;5.20;;;14.50;62.20;;;10.14;100.00;94836.78;5033453;28;20502;-50
2023/03/24 06:25:19;;;;;;;9.13;4.60;;;14.50;62.30;;;10.17;100.00;94845.00;5025782;28;20029;-50
2023/03/24 06:27:45;;;;;;;8.57;4.97;;;14.50;62.50;;;10.20;100.00;94841.78;5032349;28;20445;-49
2023/03/24 06:30:15;;;;;;;6.00;4.63;;;14.50;62.50;;;10.18;100.00;94837.78;5032366;28;20112;-49
2023/03/24 06:32:45;;;;;;;6.32;4.45;;;14.50;62.60;;;10.25;100.00;94850.78;5013641;28;20116;-49
2023/03/24 06:35:14;;;;;;;9.57;4.90;;;14.50;63.10;;;10.31;100.00;94844.38;5033703;28;20369;-49
2023/03/24 06:37:40;;;;;;;7.47;4.68;;;14.60;63.70;;;10.34;100.00;94846.47;5021467;28;20021;-50
2023/03/24 06:40:10;;;;;;;9.18;5.95;;;14.60;63.70;;;10.37;100.00;94854.72;5046863;28;20028;-49
2023/03/24 06:42:36;;;;;;;4.93;3.92;;;14.60;62.90;;;10.42;100.00;94865.28;5036174;28;20032;-52
2023/03/24 06:45:03;;;;;;;5.40;4.20;;;14.70;63.10;;;10.50;100.00;94860.44;5030654;28;20020;-49
2023/03/24 06:47:28;;;;;;;6.15;3.85;;;14.70;63.10;;;10.58;100.00;94862.50;5033305;28;20029;-48
2023/03/24 06:49:54;;;;;;;5.20;3.78;;;14.80;63.20;;;10.64;100.00;94877.34;5032545;28;20021;-48
2023/03/24 06:52:20;;;;;;;5.93;4.07;;;14.80;63.10;;;10.74;100.00;94879.91;5032575;28;20052;-50
2023/03/24 06:54:46;;;;;;;7.40;3.80;;;14.80;63.10;;;10.80;99.41;94878.78;5022360;28;20060;-49
2023/03/24 06:57:12;;;;;;;4.65;3.40;;;14.90;63.20;;;10.91;97.89;94876.81;5029787;28;20045;-48
2023/03/24 06:59:38;;;;;;;5.28;3.85;;;14.90;63.50;;;10.98;97.67;94879.13;5032045;28;20497;-53
2023/03/24 07:02:04;;;;;;;7.00;4.65;;;14.90;63.60;;;11.06;98.56;94881.97;5033228;28;20024;-48
2023/03/24 07:04:35;;;;;;;4.68;3.95;;;14.90;63.70;;;11.09;99.07;94885.91;5031354;28;20158;-48
2023/03/24 07:07:02;;;;;;;7.60;3.80;;;14.90;63.80;;;11.11;98.94;94886.44;5026182;28;20043;-48
2023/03/24 07:09:28;;;;;;;4.97;3.70;;;14.90;63.80;;;11.10;98.02;94880.31;5030271;28;20023;-47
2023/03/24 07:11:54;;;;;;;8.32;4.00;;;15.00;63.80;;;11.13;98.04;94886.97;5026662;28;20025;-49
2023/03/24 07:14:20;;;;;;;6.85;4.10;;;15.00;63.80;;;11.13;98.75;94886.97;5031510;28;20031;-48
2023/03/24 07:16:47;;;;;;;6.43;3.83;;;15.00;63.80;;;11.14;97.93;94883.22;5032982;28;20040;-48
2023/03/24 07:19:13;;;;;;;6.63;4.25;;;15.10;63.80;;;11.16;98.14;94893.59;5040268;28;20040;-51
2023/03/24 07:21:39;;;;;;;4.20;3.78;;;15.10;63.70;;;11.21;98.30;94899.63;5042489;28;20024;-50
2023/03/24 07:24:05;;;;;;;5.97;4.50;;;15.10;63.60;;;11.23;98.05;94913.50;5030159;28;20063;-48
2023/03/24 07:26:31;;;;;;;5.85;3.67;;;15.20;63.60;;;11.23;98.39;94910.81;5026811;28;20040;-48
2023/03/24 07:28:57;;;;;;;5.28;3.75;;;15.20;63.60;;;11.24;97.14;94911.59;5031079;28;20020;-49
2023/03/24 07:31:23;;;;;;;5.45;3.42;;;15.30;63.60;;;11.27;96.97;94917.16;5032500;28;20376;-47
2023/03/24 07:33:49;;;;;;;5.07;3.70;;;15.30;63.50;;;11.32;97.44;94921.66;5031033;28;20017;-48
2023/03/24 07:36:15;;;;;;;4.40;3.50;;;15.30;63.40;;;11.31;97.23;94922.72;5030870;28;20108;-48
2023/03/24 07:38:41;;;;;;;7.80;3.78;;;15.40;63.40;;;11.27;96.13;94927.81;5032211;28;20422;-48
2023/03/24 07:41:07;;;;;;;5.57;3.58;;;15.40;63.40;;;11.28;95.76;94942.75;5032364;28;20032;-55
2023/03/24 07:43:34;;;;;;;6.88;3.55;;;15.40;63.40;;;11.36;94.91;94941.34;5031563;28;20563;-48
2023/03/24 07:46:00;;;;;;;6.30;3.60;;;15.40;63.30;;;11.42;93.80;94942.06;5045146;28;20509;-48
2023/03/24 07:48:26;;;;;;;9.18;4.18;;;15.40;63.30;;;11.44;92.95;94950.56;5037517;28;20499;-48
2023/03/24 07:50:53;;;;;;;4.53;3.63;;;15.50;63.30;;;11.51;91.92;94957.16;5032480;28;20070;-48
2023/03/24 07:53:18;;;;;;;5.20;3.80;;;15.50;63.30;;;11.58;92.85;94964.81;5032616;28;20112;-48
2023/03/24 07:55:45;;;;;;;5.72;3.88;;;15.50;63.30;;;11.62;92.61;94962.34;5029374;28;20108;-48
2023/03/24 07:58:11;;;;;;;5.65;3.83;;;15.50;63.20;;;11.63;92.68;94961.31;5031906;28;20434;-48
2023/03/24 08:00:37;;;;;;;6.38;3.78;;;15.50;63.30;;;11.67;92.21;94962.31;5031124;28;20048;-49
2023/03/24 08:03:03;;;;;;;7.45;3.65;;;15.60;63.30;;;11.64;92.44;94960.22;5032326;28;20059;-48
2023/03/24 08:05:30;;;;;;;4.78;3.80;;;15.60;63.30;;;11.67;91.91;94948.97;5032055;28;20390;-47
2023/03/24 08:07:57;;;;;;;6.93;3.80;;;15.60;63.10;;;11.70;92.14;94957.19;5030971;28;20032;-48
2023/03/24 08:10:30;;;;;;;7.47;4.18;;;15.70;63.00;;;11.75;91.80;94961.66;5028159;28;20025;-50
2023/03/24 08:12:57;;;;;;;;;;;15.80;62.90;;;11.79;92.59;94963.47;5031493;28;20407;-48
2023/03/24 08:15:26;;;;;;;6.25;3.80;;;15.90;62.60;;;11.82;92.18;94968.25;5011347;28;19966;-52
2023/03/24 08:17:55;;;;;;;6.43;4.03;;;15.90;62.50;;;11.90;92.31;94955.38;5027272;28;20049;-49
2023/03/24 08:20:23;;;;;;;7.25;4.30;;;16.00;62.40;;;11.79;92.20;94936.78;5031939;28;20023;-48
2023/03/24 08:22:53;;;;;;;6.45;4.00;;;16.00;62.30;;;11.84;93.28;94930.59;5031968;28;20112;-49
2023/03/24 08:25:24;;;;;;;5.03;3.90;;;16.00;62.30;;;11.91;94.22;94917.72;5026662;28;20095;-48
2023/03/24 08:27:51;;;;;;;5.55;4.30;;;16.00;62.40;;;11.85;93.97;94942.91;5030360;28;20033;-48
2023/03/24 08:30:25;;;;;;;6.68;4.43;;;16.10;62.40;;;11.85;94.98;94950.91;5024975;28;20426;-51
2023/03/24 08:32:59;;;;;;;5.05;4.00;;;16.10;62.60;;;11.87;95.80;94974.63;5031357;28;20383;-48
2023/03/24 08:35:33;;;;;;;8.30;4.00;;;16.10;62.80;;;11.92;95.92;94962.00;5031849;28;20084;-49
2023/03/24 08:38:00;;;;;;;4.13;3.50;;;16.00;62.70;;;11.93;95.17;94962.78;5031162;28;20025;-50
2023/03/24 08:40:30;;;;;;;5.65;4.22;;;16.10;62.70;;;12.00;96.17;94971.22;5031756;28;20021;-49
2023/03/24 08:43:02;;;;;;;4.63;4.07;;;16.20;62.90;;;12.04;97.10;94970.38;5012644;28;20044;-49
2023/03/24 08:45:31;;;;;;;5.10;3.93;;;16.30;62.90;;;12.07;96.18;94966.34;5031719;28;20028;-50
2023/03/24 08:48:03;;;;;;;6.05;4.20;;;16.30;62.70;;;12.09;96.43;94974.06;5030633;28;20398;-52
2023/03/24 08:50:38;;;;;;;6.35;4.47;;;16.40;62.70;;;12.08;95.77;94967.94;5039824;28;20049;-50
2023/03/24 08:53:05;;;;;;;9.60;4.47;;;16.40;62.70;;;12.06;94.69;94966.63;5046726;28;20024;-50
2023/03/24 08:55:31;;;;;;;5.13;4.05;;;16.40;62.40;;;12.08;95.38;94983.16;5027022;28;20025;-51
2023/03/24 08:57:57;;;;;;;5.72;4.03;;;16.40;62.40;;;12.13;96.21;94980.41;5031533;28;20033;-50
2023/03/24 09:00:24;;;;;;;5.45;4.28;;;16.40;62.40;;;12.03;94.50;94990.16;5029724;28;20017;-48
2023/03/24 09:02:54;;;;;;;5.47;4.53;;;16.40;62.40;;;12.03;94.98;94992.00;5031156;28;20021;-48
2023/03/24 09:05:23;;;;;;;6.18;4.15;;;16.40;62.30;;;12.09;95.69;94990.84;5013808;28;20025;-49
2023/03/24 09:07:50;;;;;;;6.47;4.45;;;16.40;62.40;;;12.18;96.05;94985.66;5030052;28;20391;-50
2023/03/24 09:10:17;;;;;;;7.10;4.80;;;16.40;62.40;;;12.17;96.08;94984.09;5030318;28;20124;-48
2023/03/24 09:12:45;;;;;;;7.38;4.55;;;16.50;62.40;;;12.23;96.72;94983.72;5034071;28;20391;-50
2023/03/24 09:15:14;;;;;;;7.60;5.53;;;16.70;63.30;;;12.32;96.88;94981.22;5034712;28;20029;-52
2023/03/24 09:17:41;;;;;;;7.15;5.32;;;16.80;62.40;;;12.42;96.11;94988.28;5033630;28;20511;-56
2023/03/24 09:20:14;;;;;;;7.75;5.25;;;17.00;62.10;;;12.46;95.54;94984.72;5033469;28;20479;-49
2023/03/24 09:22:44;;;;;;;6.93;5.28;;;17.20;62.00;;;12.52;95.31;94992.66;5034136;28;20078;-59
2023/03/24 09:25:18;;;;;;;9.55;5.78;;;17.30;61.70;;;12.63;95.92;94997.56;5009593;28;20024;-48
2023/03/24 09:27:45;;;;;;;7.60;5.15;;;17.30;61.60;;;12.64;94.34;94991.13;5032642;28;20036;-48
2023/03/24 09:30:16;;;;;;;7.55;6.03;;;17.30;61.60;;;12.62;94.01;94998.63;5028250;28;20029;-49
2023/03/24 09:32:44;;;;;;;8.15;5.80;;;17.20;61.50;;;12.53;93.53;94989.69;5032693;28;20590;-50
2023/03/24 09:35:11;;;;;;;6.78;5.22;;;17.20;61.50;;;12.52;93.36;94987.31;5031976;28;20175;-50
2023/03/24 09:37:38;;;;;;;7.15;5.90;;;17.10;61.40;;;12.54;93.53;94983.28;5033492;28;20115;-53
2023/03/24 09:40:06;;;;;;;8.70;5.68;;;17.10;61.50;;;12.52;93.58;94984.66;5034580;28;20025;-50
2023/03/24 09:42:40;;;;;;;6.82;5.70;;;17.00;61.50;;;12.42;93.53;94991.72;5028457;28;20131;-51
2023/03/24 09:45:21;;;;;;;8.15;5.32;;;16.90;61.50;;;12.41;93.46;94986.66;5030394;28;20032;-49
2023/03/24 09:48:26;;;;;;;6.43;5.40;;;16.90;61.60;;;12.39;92.98;94988.84;5030656;28;20483;-48
2023/03/24 09:51:07;;;;;;;7.55;5.65;;;16.90;61.60;;;12.44;94.56;94992.25;5013166;28;20028;-51
2023/03/24 09:53:50;;;;;;;7.50;5.50;;;16.90;61.60;;;12.31;94.38;94992.94;5013287;28;20522;-51
2023/03/24 09:56:21;;;;;;;8.20;5.10;;;16.90;61.80;;;12.17;93.96;95005.47;5032604;28;20046;-49
2023/03/24 09:59:38;;;;;;;9.15;5.60;;;16.80;61.60;;;12.14;96.81;95014.03;5029496;28;20017;-50
2023/03/24 10:02:20;;;;;;;7.78;5.15;;;16.60;61.60;;;12.06;96.38;95010.13;4997372;28;20036;-48
2023/03/24 10:04:48;;;;;;;7.13;5.53;;;16.60;62.00;;;12.09;98.32;95012.22;5033464;28;20033;-49
2023/03/24 10:07:37;;;;;;;6.97;5.30;;;16.40;62.10;;;11.99;98.30;95012.34;5012360;28;20031;-51
2023/03/24 10:10:27;;;;;;;8.02;5.68;;;16.40;62.60;;;12.01;99.51;95023.56;5013757;28;20423;-52
2023/03/24 10:13:06;;;;;;;8.82;5.57;;;16.30;62.80;;;11.91;100.00;95024.47;5008242;28;20029;-53
2023/03/24 10:16:09;;;;;;;8.15;5.90;;;16.30;63.00;;;11.90;100.00;95019.41;5021444;28;20016;-54
2023/03/24 10:18:58;;;;;;;8.32;5.65;;;16.30;63.10;;;11.83;100.00;95022.41;5038655;28;20041;-51
2023/03/24 10:21:34;;;;;;;8.20;6.20;;;16.20;63.30;;;11.80;100.00;95023.75;5034708;28;20104;-48
2023/03/24 10:24:32;;;;;;;7.63;6.07;;;16.20;63.60;;;11.80;100.00;95005.09;5013692;28;20482;-50
2023/03/24 10:27:29;;;;;;;9.20;6.57;;;16.30;63.80;;;11.91;100.00;95016.47;5014981;28;20029;-52
2023/03/24 10:30:14;;;;;;;9.63;6.00;;;16.40;63.90;;;11.98;100.00;95016.13;4998315;28;20381;-49
2023/03/24 10:32:44;;;;;;;7.75;6.28;;;16.60;63.90;;;12.12;100.00;95024.19;4997862;28;20457;-50
2023/03/24 10:35:32;;;;;;;11.13;6.78;;;16.70;63.70;;;12.23;100.00;95023.78;4997135;28;20033;-49
2023/03/24 10:38:12;;;;;;;8.70;5.85;;;16.90;63.90;;;12.29;100.00;95019.16;5011793;28;20025;-53
2023/03/24 10:40:40;;;;;;;9.05;6.13;;;17.00;63.60;;;12.42;100.00;95012.31;4998616;28;20035;-49
2023/03/24 10:43:07;;;;;;;11.05;6.32;;;17.20;63.50;;;12.52;100.00;95014.81;5002683;28;20028;-52
2023/03/24 10:45:37;;;;;;;8.25;6.55;;;17.30;63.40;;;12.59;100.00;95014.44;5026541;28;20037;-48
2023/03/24 10:48:04;;;;;;;8.68;6.13;;;17.30;63.40;;;12.67;100.00;95008.47;5012256;28;20117;-48